Time;durP1;ratioP1;P1;durP2;ratioP2;P2;SDS_P1;SDS_P2;PMS_P1;PMS_P2;Temp;Humidity;BMP_temperature;BMP_pressure;BME280_temperature;BME280_humidity;BME280_pressure;Samples;Min_cycle;Max_cycle;Signal;HPM_P1;HPM_P2
2022/02/24 00:01:59;;;;;;;17.85;4.22;;;6.70;99.90;;;;;;5055723;28;20041;-74
2022/02/24 00:04:25;;;;;;;15.82;3.92;;;6.70;99.90;;;;;;5055882;28;20167;-74
2022/02/24 00:06:50;;;;;;;30.73;4.05;;;6.70;99.90;;;;;;5054703;28;20040;-74
2022/02/24 00:09:16;;;;;;;22.85;5.05;;;6.70;99.90;;;;;;5055573;28;20029;-74
2022/02/24 00:11:42;;;;;;;20.17;3.85;;;6.80;99.90;;;;;;5055718;28;20396;-74
2022/02/24 00:14:08;;;;;;;27.02;4.32;;;6.80;99.90;;;;;;5055561;28;20100;-74
2022/02/24 00:16:33;;;;;;;20.50;4.22;;;6.80;99.90;;;;;;5055720;28;20017;-74
2022/02/24 00:18:59;;;;;;;22.35;4.28;;;6.80;99.90;;;;;;5055471;28;20036;-74
2022/02/24 00:21:24;;;;;;;16.70;4.47;;;6.80;99.90;;;;;;5055325;28;20055;-74
2022/02/24 00:23:50;;;;;;;21.88;3.30;;;6.70;99.90;;;;;;5055422;28;20071;-74
2022/02/24 00:26:16;;;;;;;24.60;4.22;;;6.70;99.90;;;;;;5055341;28;20028;-74
2022/02/24 00:28:41;;;;;;;16.98;4.90;;;6.80;99.90;;;;;;5055195;28;20036;-74
2022/02/24 00:31:10;;;;;;;16.70;4.97;;;6.70;99.90;;;;;;5055253;28;20028;-74
2022/02/24 00:33:38;;;;;;;17.48;4.57;;;6.80;99.90;;;;;;5055511;28;20035;-74
2022/02/24 00:36:05;;;;;;;15.23;3.58;;;6.80;99.90;;;;;;5055401;28;20027;-73
2022/02/24 00:38:30;;;;;;;28.48;4.72;;;6.80;99.90;;;;;;5055225;28;20056;-73
2022/02/24 00:40:56;;;;;;;25.35;5.05;;;6.80;99.90;;;;;;5054973;28;20053;-73
2022/02/24 00:43:21;;;;;;;26.45;4.72;;;6.70;99.90;;;;;;5055625;28;20394;-73
2022/02/24 00:45:47;;;;;;;16.13;4.35;;;6.70;99.90;;;;;;5054890;28;20021;-74
2022/02/24 00:48:12;;;;;;;28.85;4.47;;;6.80;99.90;;;;;;5054981;28;20064;-74
2022/02/24 00:50:38;;;;;;;31.02;5.22;;;6.70;99.90;;;;;;5054790;28;20051;-74
2022/02/24 00:53:04;;;;;;;21.92;4.60;;;6.70;99.90;;;;;;5055233;28;20377;-74
2022/02/24 00:55:30;;;;;;;21.55;4.13;;;6.80;99.90;;;;;;5054802;28;20025;-74
2022/02/24 00:57:56;;;;;;;20.55;4.45;;;6.80;99.90;;;;;;5054649;28;20040;-74
2022/02/24 01:00:23;;;;;;;26.52;4.85;;;6.70;99.90;;;;;;5054688;28;20025;-74
2022/02/24 01:02:48;;;;;;;22.30;3.92;;;6.80;99.90;;;;;;5054446;28;20040;-74
2022/02/24 01:05:14;;;;;;;17.52;3.80;;;6.80;99.90;;;;;;5054549;28;20052;-74
2022/02/24 01:07:40;;;;;;;19.23;4.57;;;6.80;99.90;;;;;;5054562;28;20481;-74
2022/02/24 01:10:06;;;;;;;17.25;3.38;;;6.90;99.90;;;;;;5054292;28;20041;-74
2022/02/24 01:12:32;;;;;;;34.30;4.90;;;6.80;99.90;;;;;;5054281;28;20083;-74
2022/02/24 01:15:03;;;;;;;22.35;4.10;;;6.80;99.90;;;;;;5054316;28;20057;-74
2022/02/24 01:17:30;;;;;;;35.30;4.45;;;6.90;99.90;;;;;;5054735;28;20394;-74
2022/02/24 01:19:55;;;;;;;23.48;5.60;;;6.90;99.90;;;;;;5054399;28;20060;-74
2022/02/24 01:22:21;;;;;;;28.30;4.28;;;6.90;99.90;;;;;;5054540;28;20052;-73
2022/02/24 01:24:47;;;;;;;21.25;4.07;;;7.00;99.90;;;;;;5054139;28;20032;-74
2022/02/24 01:27:12;;;;;;;25.17;4.75;;;7.00;99.90;;;;;;5054134;28;20029;-74
2022/02/24 01:29:38;;;;;;;16.15;4.07;;;7.00;99.90;;;;;;5054294;28;20035;-74
2022/02/24 01:32:04;;;;;;;28.85;4.55;;;7.00;99.90;;;;;;5054006;28;20053;-74
2022/02/24 01:34:32;;;;;;;23.50;4.50;;;7.00;99.90;;;;;;5054147;28;20021;-73
2022/02/24 01:36:57;;;;;;;27.40;4.57;;;7.00;99.90;;;;;;5054025;28;20112;-73
2022/02/24 01:39:23;;;;;;;32.50;5.93;;;6.90;99.90;;;;;;5053979;28;20052;-73
2022/02/24 01:41:48;;;;;;;39.78;6.65;;;6.80;99.90;;;;;;5054065;28;20035;-73
2022/02/24 01:44:15;;;;;;;19.73;5.15;;;6.90;99.90;;;;;;5053928;28;20032;-73
2022/02/24 01:46:42;;;;;;;23.55;5.70;;;6.80;99.90;;;;;;5053819;28;20033;-73
2022/02/24 01:49:09;;;;;;;31.45;4.75;;;6.80;99.90;;;;;;5053862;28;20103;-74
2022/02/24 01:51:36;;;;;;;23.00;5.35;;;6.80;99.90;;;;;;5054257;28;20541;-74
2022/02/24 01:54:02;;;;;;;20.50;5.30;;;6.80;99.90;;;;;;5053785;28;20037;-74
2022/02/24 01:56:28;;;;;;;28.85;4.72;;;6.80;99.90;;;;;;5053811;28;20028;-74
2022/02/24 01:58:54;;;;;;;22.65;4.75;;;6.80;99.90;;;;;;5053913;28;20474;-74
2022/02/24 02:01:21;;;;;;;34.15;5.28;;;6.80;99.90;;;;;;5053479;28;20021;-74
2022/02/24 02:03:51;;;;;;;22.60;5.07;;;6.80;99.90;;;;;;5054029;28;20021;-74
2022/02/24 02:06:18;;;;;;;22.95;4.18;;;6.90;99.90;;;;;;5053665;28;20488;-73
2022/02/24 02:08:44;;;;;;;25.63;4.30;;;6.90;99.90;;;;;;5053517;28;20109;-73
2022/02/24 02:11:09;;;;;;;34.78;5.40;;;6.90;99.90;;;;;;5054113;28;20422;-74
2022/02/24 02:13:36;;;;;;;27.20;5.55;;;6.90;99.90;;;;;;5053646;28;20393;-74
2022/02/24 02:16:02;;;;;;;25.25;4.60;;;6.90;99.90;;;;;;5053519;28;20017;-74
2022/02/24 02:18:28;;;;;;;24.67;4.15;;;6.90;99.90;;;;;;5054059;28;20047;-74
2022/02/24 02:20:54;;;;;;;22.27;3.78;;;6.90;99.90;;;;;;5053549;28;20048;-73
2022/02/24 02:23:20;;;;;;;29.17;5.10;;;6.90;99.90;;;;;;5053338;28;20154;-73
2022/02/24 02:25:46;;;;;;;30.60;5.05;;;6.90;99.90;;;;;;5053363;28;20063;-73
2022/02/24 02:28:14;;;;;;;27.35;3.95;;;6.90;99.90;;;;;;5053534;28;20097;-73
2022/02/24 02:30:39;;;;;;;30.15;5.10;;;6.90;99.90;;;;;;5056079;28;20029;-73
2022/02/24 02:33:05;;;;;;;23.77;5.18;;;6.90;99.90;;;;;;5057715;28;20024;-74
2022/02/24 02:35:30;;;;;;;27.42;4.68;;;6.90;99.90;;;;;;5057404;28;20017;-74
2022/02/24 02:37:57;;;;;;;26.17;4.43;;;6.90;99.90;;;;;;5057707;28;20027;-74
2022/02/24 02:40:23;;;;;;;25.42;5.07;;;6.90;99.90;;;;;;5057258;28;20028;-74
2022/02/24 02:42:50;;;;;;;24.75;4.30;;;6.90;99.90;;;;;;5057442;28;20040;-75
2022/02/24 02:45:16;;;;;;;27.30;4.90;;;7.00;99.90;;;;;;5057206;28;20488;-74
2022/02/24 02:47:42;;;;;;;29.08;4.70;;;6.90;99.90;;;;;;5057262;28;20037;-74
2022/02/24 02:50:08;;;;;;;22.83;3.88;;;6.90;99.90;;;;;;5057098;28;20048;-74
2022/02/24 02:52:34;;;;;;;27.10;5.30;;;7.00;99.90;;;;;;5057173;28;20477;-74
2022/02/24 02:55:12;;;;;;;24.05;4.78;;;6.90;99.90;;;;;;5057307;28;20053;-74
2022/02/24 02:57:39;;;;;;;27.05;4.70;;;6.90;99.90;;;;;;5057315;28;20100;-74
2022/02/24 03:00:07;;;;;;;24.42;4.43;;;6.90;99.90;;;;;;5056977;28;20385;-73
2022/02/24 03:02:33;;;;;;;31.63;4.20;;;6.90;99.90;;;;;;5094135;22;20256;-76
2022/02/24 03:04:59;;;;;;;29.77;4.47;;;6.90;99.90;;;;;;5037330;28;20469;-76
2022/02/24 03:07:25;;;;;;;27.83;4.60;;;6.90;99.90;;;;;;5037765;28;20075;-76
2022/02/24 03:09:52;;;;;;;20.73;4.30;;;6.90;99.90;;;;;;5037478;28;20028;-76
2022/02/24 03:12:18;;;;;;;25.33;4.57;;;6.90;99.90;;;;;;5019454;28;20022;-76
2022/02/24 03:14:45;;;;;;;27.65;5.80;;;6.90;99.90;;;;;;5037803;28;20117;-76
2022/02/24 03:17:11;;;;;;;27.92;4.25;;;6.90;99.90;;;;;;5037375;28;20076;-76
2022/02/24 03:19:36;;;;;;;26.65;4.40;;;6.90;99.90;;;;;;5037443;28;20025;-76
2022/02/24 03:22:05;;;;;;;16.67;3.60;;;6.90;99.90;;;;;;5036831;28;20473;-76
2022/02/24 03:24:31;;;;;;;31.98;4.88;;;6.90;99.90;;;;;;5036944;28;20044;-76
2022/02/24 03:26:56;;;;;;;27.67;6.38;;;6.90;99.90;;;;;;5036888;28;20104;-76
2022/02/24 03:29:22;;;;;;;26.88;3.60;;;6.80;99.90;;;;;;5037372;28;20065;-76
2022/02/24 03:31:47;;;;;;;29.77;4.63;;;6.80;99.90;;;;;;5036942;28;20484;-76
2022/02/24 03:34:14;;;;;;;29.23;5.60;;;6.80;99.90;;;;;;5036632;28;20026;-76
2022/02/24 03:36:39;;;;;;;31.05;5.25;;;6.80;99.90;;;;;;5036730;28;20045;-76
2022/02/24 03:39:05;;;;;;;32.10;5.18;;;6.80;99.90;;;;;;5036575;28;20064;-76
2022/02/24 03:41:31;;;;;;;24.13;4.68;;;6.80;99.90;;;;;;5036627;28;20029;-76
2022/02/24 03:43:56;;;;;;;24.63;4.50;;;6.80;99.90;;;;;;5036523;28;20029;-76
2022/02/24 03:46:22;;;;;;;32.10;5.10;;;6.80;99.90;;;;;;5036726;28;20029;-76
2022/02/24 03:48:48;;;;;;;35.10;5.38;;;6.80;99.90;;;;;;5036376;28;20105;-76
2022/02/24 03:51:14;;;;;;;33.13;5.18;;;6.80;99.90;;;;;;5036733;28;20152;-76
2022/02/24 03:53:40;;;;;;;28.17;5.35;;;6.80;99.90;;;;;;5036283;28;20029;-76
2022/02/24 03:56:06;;;;;;;29.95;4.63;;;6.80;99.90;;;;;;5018585;28;20025;-76
2022/02/24 03:58:31;;;;;;;28.58;5.53;;;6.80;99.90;;;;;;5036407;28;20116;-76
2022/02/24 04:00:57;;;;;;;27.30;5.03;;;6.70;99.90;;;;;;5036199;28;20033;-76
2022/02/24 04:03:23;;;;;;;26.00;4.65;;;6.70;99.90;;;;;;5035959;28;20068;-76
2022/02/24 04:05:49;;;;;;;34.03;4.95;;;6.70;99.90;;;;;;5036695;28;20087;-76
2022/02/24 04:08:14;;;;;;;29.63;5.25;;;6.80;99.90;;;;;;5036444;28;20038;-76
2022/02/24 04:10:40;;;;;;;24.38;4.38;;;6.70;99.90;;;;;;5036019;28;20106;-76
2022/02/24 04:13:05;;;;;;;27.80;5.57;;;6.70;99.90;;;;;;5018317;28;20439;-76
2022/02/24 04:15:31;;;;;;;30.05;5.18;;;6.70;99.90;;;;;;5036225;28;20441;-76
2022/02/24 04:17:56;;;;;;;24.55;4.07;;;6.70;99.90;;;;;;5035954;28;20533;-76
2022/02/24 04:20:22;;;;;;;31.55;3.92;;;6.70;99.90;;;;;;5035827;28;20049;-76
2022/02/24 04:22:47;;;;;;;36.47;4.57;;;6.70;99.90;;;;;;5035702;28;20021;-76
2022/02/24 04:25:13;;;;;;;28.10;4.93;;;6.70;99.90;;;;;;5035984;28;20111;-76
2022/02/24 04:27:46;;;;;;;34.75;5.18;;;6.70;99.90;;;;;;5035659;28;20033;-76
2022/02/24 04:30:13;;;;;;;28.05;5.45;;;6.70;99.90;;;;;;5036151;28;20086;-76
2022/02/24 04:32:39;;;;;;;34.05;4.63;;;6.70;99.90;;;;;;5035594;28;20045;-76
2022/02/24 04:35:05;;;;;;;33.90;5.07;;;6.70;99.90;;;;;;5017834;28;20021;-76
2022/02/24 04:37:31;;;;;;;23.55;3.88;;;6.60;99.90;;;;;;5035509;28;20043;-76
2022/02/24 04:39:56;;;;;;;32.97;4.82;;;6.60;99.90;;;;;;5035441;28;20026;-76
2022/02/24 04:42:22;;;;;;;25.25;4.07;;;6.60;99.90;;;;;;5035475;28;20033;-76
2022/02/24 04:44:48;;;;;;;30.95;4.32;;;6.60;99.90;;;;;;5035410;28;20104;-76
2022/02/24 04:47:13;;;;;;;31.08;4.60;;;6.60;99.90;;;;;;5035424;28;20444;-76
2022/02/24 04:49:39;;;;;;;26.35;6.03;;;6.60;99.90;;;;;;5035288;28;20034;-76
2022/02/24 04:52:05;;;;;;;42.85;5.50;;;6.50;99.90;;;;;;5034899;28;20049;-75
2022/02/24 04:54:30;;;;;;;36.50;5.43;;;6.50;99.90;;;;;;5035049;28;20026;-76
2022/02/24 04:56:56;;;;;;;19.48;5.20;;;6.60;99.90;;;;;;5035254;28;20025;-76
2022/02/24 04:59:21;;;;;;;25.05;3.70;;;6.60;99.90;;;;;;5035330;28;20091;-76
2022/02/24 05:01:47;;;;;;;31.90;6.18;;;6.60;99.90;;;;;;5035420;28;20034;-76
2022/02/24 05:04:13;;;;;;;27.58;4.35;;;6.60;99.90;;;;;;5034850;28;20043;-76
2022/02/24 05:06:38;;;;;;;30.92;4.47;;;6.60;99.90;;;;;;5035216;28;20033;-76
2022/02/24 05:09:04;;;;;;;39.15;5.13;;;6.60;99.90;;;;;;5034881;28;20025;-76
2022/02/24 05:11:29;;;;;;;27.67;4.55;;;6.60;99.90;;;;;;5035150;28;20034;-76
2022/02/24 05:13:55;;;;;;;36.80;5.78;;;6.60;99.90;;;;;;5034675;28;20075;-76
2022/02/24 05:16:20;;;;;;;29.00;5.82;;;6.60;99.90;;;;;;5034959;28;20029;-76
2022/02/24 05:18:46;;;;;;;18.85;3.50;;;6.60;99.90;;;;;;5034893;28;20033;-76
2022/02/24 05:21:11;;;;;;;25.75;4.40;;;6.60;99.90;;;;;;5035144;28;20036;-76
2022/02/24 05:23:37;;;;;;;27.30;4.22;;;6.60;99.90;;;;;;5034726;28;20029;-76
2022/02/24 05:26:03;;;;;;;28.98;4.55;;;6.60;99.90;;;;;;5034930;28;20025;-76
2022/02/24 05:28:29;;;;;;;26.77;3.95;;;6.50;99.90;;;;;;5035038;28;20056;-76
2022/02/24 05:30:59;;;;;;;24.10;5.25;;;6.50;99.90;;;;;;5034811;28;20375;-76
2022/02/24 05:33:28;;;;;;;36.58;5.20;;;6.50;99.90;;;;;;5034671;28;20018;-76
2022/02/24 05:35:54;;;;;;;29.23;5.05;;;6.60;99.90;;;;;;5016843;28;20017;-76
2022/02/24 05:38:20;;;;;;;20.75;4.53;;;6.60;99.90;;;;;;5034500;28;20124;-76
2022/02/24 05:40:45;;;;;;;34.58;5.43;;;6.50;99.90;;;;;;5034415;28;20021;-76
2022/02/24 05:43:11;;;;;;;25.85;4.78;;;6.50;99.90;;;;;;5034244;28;20440;-76
2022/02/24 05:45:36;;;;;;;25.65;5.00;;;6.50;99.90;;;;;;5034487;28;20382;-76
2022/02/24 05:48:02;;;;;;;31.15;5.45;;;6.50;99.90;;;;;;5034364;28;20120;-76
2022/02/24 05:50:28;;;;;;;40.92;5.18;;;6.50;99.90;;;;;;5034184;28;20044;-76
2022/02/24 05:52:53;;;;;;;18.25;4.47;;;6.50;99.90;;;;;;5034164;28;20072;-76
2022/02/24 05:55:19;;;;;;;28.17;4.85;;;6.50;99.90;;;;;;5034129;28;20028;-76
2022/02/24 05:57:45;;;;;;;36.33;6.57;;;6.50;99.90;;;;;;5034175;28;20021;-76
2022/02/24 06:00:12;;;;;;;42.85;4.65;;;6.60;99.90;;;;;;5034450;28;20029;-76
2022/02/24 06:02:39;;;;;;;27.73;4.43;;;6.50;99.90;;;;;;5034358;28;20030;-76
2022/02/24 06:05:05;;;;;;;34.58;5.97;;;6.50;99.90;;;;;;5034073;28;20034;-76
2022/02/24 06:07:30;;;;;;;27.27;4.15;;;6.40;99.90;;;;;;5016365;28;20518;-76
2022/02/24 06:09:56;;;;;;;39.13;5.90;;;6.50;99.90;;;;;;5033944;28;20057;-76
2022/02/24 06:12:22;;;;;;;20.33;3.47;;;6.50;99.90;;;;;;5034170;28;20022;-76
2022/02/24 06:14:47;;;;;;;27.80;4.18;;;6.50;99.90;;;;;;5034251;28;20369;-76
2022/02/24 06:17:13;;;;;;;28.10;5.07;;;6.50;99.90;;;;;;5034032;28;20026;-76
2022/02/24 06:19:39;;;;;;;33.70;6.65;;;6.50;99.90;;;;;;5033985;28;20026;-76
2022/02/24 06:22:05;;;;;;;31.90;5.25;;;6.50;99.90;;;;;;5033893;28;20034;-76
2022/02/24 06:24:31;;;;;;;23.80;3.97;;;6.50;99.90;;;;;;5016260;28;20079;-76
2022/02/24 06:26:56;;;;;;;31.83;3.67;;;6.50;99.90;;;;;;5033900;28;20022;-76
2022/02/24 06:29:22;;;;;;;28.00;4.18;;;6.50;99.90;;;;;;5033754;28;20041;-76
2022/02/24 06:31:47;;;;;;;31.83;4.68;;;6.50;99.90;;;;;;5033820;28;20079;-76
2022/02/24 06:34:13;;;;;;;30.08;4.28;;;6.50;99.90;;;;;;5033897;28;20355;-76
2022/02/24 06:36:38;;;;;;;37.58;5.63;;;6.50;99.90;;;;;;5034374;28;20026;-76
2022/02/24 06:39:04;;;;;;;18.35;3.83;;;6.60;99.90;;;;;;5033868;28;20053;-76
2022/02/24 06:41:30;;;;;;;25.92;4.22;;;6.50;99.90;;;;;;5033858;28;20030;-76
2022/02/24 06:43:56;;;;;;;34.13;5.90;;;6.50;99.90;;;;;;5033674;28;20053;-76
2022/02/24 06:46:22;;;;;;;25.02;3.80;;;6.50;99.90;;;;;;5033834;28;20071;-76
2022/02/24 06:48:47;;;;;;;29.20;4.57;;;6.50;99.90;;;;;;5033737;28;20041;-76
2022/02/24 06:51:13;;;;;;;28.92;5.60;;;6.60;99.90;;;;;;5016041;28;20021;-76
2022/02/24 06:53:39;;;;;;;23.50;4.28;;;6.60;99.90;;;;;;5033602;28;20111;-76
2022/02/24 06:56:05;;;;;;;31.63;4.60;;;6.60;99.90;;;;;;5015948;28;20057;-76
2022/02/24 06:58:31;;;;;;;30.83;4.82;;;6.60;99.90;;;;;;5033625;28;20021;-76
2022/02/24 07:00:58;;;;;;;21.65;4.15;;;6.60;99.90;;;;;;5033834;28;20041;-76
2022/02/24 07:03:23;;;;;;;36.38;5.07;;;6.60;99.90;;;;;;5033473;28;20052;-76
2022/02/24 07:05:49;;;;;;;21.92;3.95;;;6.60;99.90;;;;;;5033651;28;20072;-76
2022/02/24 07:08:14;;;;;;;40.63;5.18;;;6.60;99.90;;;;;;5033507;28;20109;-76
2022/02/24 07:10:40;;;;;;;23.00;4.70;;;6.50;99.90;;;;;;5033700;28;20057;-76
2022/02/24 07:13:05;;;;;;;25.10;4.78;;;6.50;99.90;;;;;;5015689;28;20422;-75
2022/02/24 07:15:31;;;;;;;29.70;4.68;;;6.30;99.90;;;;;;5033884;28;20481;-75
2022/02/24 07:17:57;;;;;;;38.33;5.10;;;6.10;99.90;;;;;;5019395;28;20014;-75
2022/02/24 07:20:23;;;;;;;22.88;4.50;;;6.00;99.90;;;;;;5037041;28;20053;-75
2022/02/24 07:22:49;;;;;;;46.50;5.95;;;5.90;99.90;;;;;;5037229;28;20086;-75
2022/02/24 07:25:14;;;;;;;50.85;6.75;;;5.90;99.90;;;;;;5036923;28;20029;-75
2022/02/24 07:27:42;;;;;;;29.58;4.95;;;5.80;99.90;;;;;;5037062;28;20358;-74
2022/02/24 07:30:08;;;;;;;32.90;4.85;;;5.80;99.90;;;;;;5036624;28;20032;-74
2022/02/24 07:32:34;;;;;;;46.72;4.45;;;5.80;99.90;;;;;;5036691;28;20367;-74
2022/02/24 07:35:01;;;;;;;38.08;5.88;;;5.80;99.90;;;;;;5037023;28;20045;-75
2022/02/24 07:37:27;;;;;;;29.08;5.15;;;5.70;99.90;;;;;;5036837;28;20068;-75
2022/02/24 07:39:53;;;;;;;37.00;4.85;;;5.70;99.90;;;;;;5036865;28;20057;-75
2022/02/24 07:42:19;;;;;;;57.00;6.53;;;5.70;99.90;;;;;;5036534;28;20033;-74
2022/02/24 07:44:45;;;;;;;36.58;5.60;;;5.70;99.90;;;;;;5036525;28;20024;-75
2022/02/24 07:47:11;;;;;;;27.05;4.43;;;5.70;99.90;;;;;;5036578;28;20084;-75
2022/02/24 07:49:37;;;;;;;33.58;7.85;;;5.60;99.90;;;;;;5036393;28;20034;-75
2022/02/24 07:52:02;;;;;;;39.42;6.40;;;5.70;99.90;;;;;;5036451;28;20025;-75
2022/02/24 07:54:28;;;;;;;40.10;6.88;;;5.70;99.90;;;;;;5036718;28;20101;-75
2022/02/24 07:56:53;;;;;;;32.67;5.47;;;5.70;99.90;;;;;;5036292;28;20052;-75
2022/02/24 07:59:20;;;;;;;42.65;6.00;;;5.70;99.90;;;;;;5036812;28;20025;-75
2022/02/24 08:01:46;;;;;;;30.23;6.22;;;5.70;99.90;;;;;;5036221;28;20029;-75
2022/02/24 08:04:12;;;;;;;38.65;6.13;;;5.70;99.90;;;;;;5036595;28;20040;-75
2022/02/24 08:06:38;;;;;;;40.05;5.28;;;5.70;99.90;;;;;;5036168;28;20025;-75
2022/02/24 08:09:07;;;;;;;37.10;5.55;;;5.70;99.90;;;;;;5036342;28;20040;-75
2022/02/24 08:11:34;;;;;;;41.90;6.13;;;5.70;99.90;;;;;;5036306;28;20075;-75
2022/02/24 08:13:59;;;;;;;41.45;7.00;;;5.70;99.90;;;;;;5035945;28;20021;-74
2022/02/24 08:16:25;;;;;;;35.85;6.90;;;5.70;99.90;;;;;;5036200;28;20032;-74
2022/02/24 08:18:51;;;;;;;40.25;6.22;;;5.70;99.90;;;;;;5035918;28;20030;-74
2022/02/24 08:21:16;;;;;;;50.58;7.95;;;5.70;99.90;;;;;;5036024;28;20025;-74
2022/02/24 08:23:42;;;;;;;43.67;8.10;;;5.70;99.90;;;;;;5036275;28;20034;-74
2022/02/24 08:26:09;;;;;;;39.28;5.78;;;5.70;99.90;;;;;;5036288;28;20021;-74
2022/02/24 08:28:35;;;;;;;46.08;7.13;;;5.70;99.90;;;;;;5034571;28;20413;-74
2022/02/24 08:31:00;;;;;;;42.53;6.28;;;5.60;99.90;;;;;;5035941;28;20040;-74
2022/02/24 08:33:26;;;;;;;39.75;5.32;;;5.70;99.90;;;;;;5017774;28;20048;-74
2022/02/24 08:35:51;;;;;;;33.47;5.70;;;5.70;99.90;;;;;;5035581;28;20022;-74
2022/02/24 08:38:18;;;;;;;39.03;5.72;;;5.70;99.90;;;;;;5035630;28;20385;-74
2022/02/24 08:40:44;;;;;;;47.80;5.47;;;5.80;99.90;;;;;;5035939;28;20025;-74
2022/02/24 08:43:09;;;;;;;44.30;7.75;;;5.80;99.90;;;;;;5035412;28;20088;-74
2022/02/24 08:45:35;;;;;;;41.10;5.85;;;5.80;99.90;;;;;;5035721;28;20029;-74
2022/02/24 08:48:03;;;;;;;45.75;7.13;;;5.80;99.90;;;;;;5035374;28;20041;-75
2022/02/24 08:50:28;;;;;;;43.33;5.85;;;5.70;99.90;;;;;;5035292;28;20051;-74
2022/02/24 08:52:55;;;;;;;47.50;7.78;;;5.70;99.90;;;;;;5035311;28;20029;-74
2022/02/24 08:55:20;;;;;;;39.05;5.97;;;5.70;99.90;;;;;;5035625;28;20102;-74
2022/02/24 08:57:46;;;;;;;24.45;4.85;;;5.70;99.90;;;;;;5035164;28;20025;-75
2022/02/24 09:00:13;;;;;;;35.92;6.90;;;5.70;99.90;;;;;;5035108;28;20025;-75
2022/02/24 09:02:38;;;;;;;47.53;6.00;;;5.70;99.90;;;;;;5035062;28;20505;-74
2022/02/24 09:05:05;;;;;;;42.22;6.25;;;5.60;99.90;;;;;;5106747;22;20045;-73
2022/02/24 09:07:30;;;;;;;60.28;7.57;;;5.70;99.90;;;;;;5054871;28;20013;-73
2022/02/24 09:09:56;;;;;;;28.38;5.60;;;5.70;99.90;;;;;;5054482;28;20350;-73
2022/02/24 09:12:21;;;;;;;43.90;7.60;;;5.70;99.90;;;;;;5054465;28;20036;-73
2022/02/24 09:14:47;;;;;;;31.65;6.35;;;5.70;99.90;;;;;;5054291;28;20025;-72
2022/02/24 09:17:13;;;;;;;41.75;6.05;;;5.70;99.90;;;;;;5054546;28;20024;-72
2022/02/24 09:19:43;;;;;;;30.58;6.03;;;5.70;99.90;;;;;;5054232;28;20025;-72
2022/02/24 09:22:09;;;;;;;43.50;7.50;;;5.80;99.90;;;;;;5054696;28;20017;-74
2022/02/24 09:24:35;;;;;;;33.72;6.43;;;5.80;99.90;;;;;;5054186;28;20068;-73
2022/02/24 09:27:01;;;;;;;56.35;8.93;;;5.80;99.90;;;;;;5054129;28;20036;-73
2022/02/24 09:29:28;;;;;;;42.85;7.13;;;5.80;99.90;;;;;;5054392;28;20074;-73
2022/02/24 09:31:54;;;;;;;35.53;6.90;;;5.80;99.90;;;;;;5054140;28;20481;-73
2022/02/24 09:34:20;;;;;;;42.75;8.77;;;5.80;99.90;;;;;;5054230;28;20021;-73
2022/02/24 09:36:47;;;;;;;27.65;7.10;;;5.90;99.90;;;;;;5054176;28;20023;-74
2022/02/24 09:39:13;;;;;;;48.40;7.85;;;5.90;99.90;;;;;;5054020;28;20053;-74
2022/02/24 09:41:39;;;;;;;39.25;7.40;;;5.90;99.90;;;;;;5054497;28;20090;-74
2022/02/24 09:44:05;;;;;;;42.00;8.05;;;6.00;99.90;;;;;;5053982;28;20032;-73
2022/02/24 09:46:33;;;;;;;34.25;6.72;;;6.00;99.90;;;;;;5053796;28;20024;-72
2022/02/24 09:49:01;;;;;;;28.75;7.13;;;6.00;99.90;;;;;;5053918;28;20025;-72
2022/02/24 09:51:27;;;;;;;40.45;8.15;;;6.00;99.90;;;;;;5054004;28;20440;-72
2022/02/24 09:53:53;;;;;;;32.28;6.65;;;6.00;99.90;;;;;;5053835;28;20092;-73
2022/02/24 09:56:21;;;;;;;35.97;7.88;;;6.00;99.90;;;;;;5053681;28;20021;-72
2022/02/24 09:58:48;;;;;;;40.45;7.57;;;6.10;99.90;;;;;;5053784;28;20477;-72
2022/02/24 10:01:15;;;;;;;36.00;6.85;;;6.10;99.90;;;;;;5053707;28;20111;-74
2022/02/24 10:03:45;;;;;;;31.80;7.28;;;6.10;99.90;;;;;;5053540;28;20021;-72
2022/02/24 10:06:12;;;;;;;49.33;7.82;;;6.20;99.90;;;;;;5053587;28;20025;-72
2022/02/24 10:08:46;;;;;;;27.45;6.47;;;6.20;99.90;;;;;;5053897;28;20071;-72
2022/02/24 10:11:27;;;;;;;29.02;7.30;;;6.30;99.90;;;;;;5053391;28;20047;-72
2022/02/24 10:14:04;;;;;;;35.50;7.95;;;6.20;99.90;;;;;;5053388;28;20051;-72
2022/02/24 10:16:32;;;;;;;27.35;7.00;;;6.30;99.90;;;;;;5035896;28;20439;-73
2022/02/24 10:19:09;;;;;;;42.08;7.68;;;6.30;99.90;;;;;;5053517;28;20070;-74
2022/02/24 10:21:34;;;;;;;43.50;8.20;;;6.40;99.90;;;;;;5053700;28;20029;-73
2022/02/24 10:24:00;;;;;;;40.38;7.68;;;6.40;99.90;;;;;;5053542;28;20067;-72
2022/02/24 10:26:26;;;;;;;41.22;6.78;;;6.40;99.90;;;;;;5035465;28;20029;-72
2022/02/24 10:28:52;;;;;;;28.02;8.13;;;6.50;99.90;;;;;;5053186;28;20031;-72
2022/02/24 10:31:19;;;;;;;33.63;8.15;;;6.50;99.90;;;;;;5053383;28;20029;-74
2022/02/24 10:33:47;;;;;;;39.20;7.15;;;6.40;99.90;;;;;;5052976;28;20477;-74
2022/02/24 10:36:20;;;;;;;32.75;7.90;;;6.40;99.90;;;;;;5035155;28;20025;-74
2022/02/24 10:39:10;;;;;;;36.05;7.15;;;6.50;99.90;;;;;;5053420;28;20129;-74
2022/02/24 10:41:38;;;;;;;36.30;7.78;;;6.50;99.90;;;;;;5039020;28;20032;-74
2022/02/24 10:44:21;;;;;;;25.70;6.57;;;6.50;99.90;;;;;;5053085;28;20025;-73
2022/02/24 10:47:17;;;;;;;37.85;7.47;;;6.40;99.90;;;;;;5053516;28;20032;-74
2022/02/24 10:49:49;;;;;;;32.70;6.63;;;6.50;99.90;;;;;;5031962;28;20052;-74
2022/02/24 10:52:19;;;;;;;38.05;7.05;;;6.50;99.90;;;;;;5038803;28;20013;-73
2022/02/24 10:55:02;;;;;;;44.53;7.35;;;6.60;99.90;;;;;;5057021;28;20056;-74
2022/02/24 10:57:30;;;;;;;42.78;7.40;;;6.60;99.90;;;;;;5057151;28;20028;-73
2022/02/24 10:59:57;;;;;;;25.60;5.95;;;6.60;99.90;;;;;;5057121;28;20035;-74
2022/02/24 11:02:24;;;;;;;43.78;6.28;;;6.70;99.90;;;;;;5057033;28;20036;-72
2022/02/24 11:04:51;;;;;;;22.40;5.80;;;6.80;99.90;;;;;;5056551;28;20496;-72
2022/02/24 11:07:17;;;;;;;31.27;7.45;;;6.80;99.90;;;;;;5057161;28;20361;-73
2022/02/24 11:09:44;;;;;;;24.38;6.10;;;6.70;99.90;;;;;;5057477;28;20058;-73
2022/02/24 11:12:12;;;;;;;22.38;6.70;;;6.70;99.90;;;;;;5056792;28;20465;-73
2022/02/24 11:14:41;;;;;;;27.40;6.05;;;6.80;99.90;;;;;;5056515;28;20021;-72
2022/02/24 11:17:11;;;;;;;29.85;6.85;;;6.80;99.90;;;;;;5056834;28;20043;-74
2022/02/24 11:19:38;;;;;;;34.70;6.57;;;6.80;99.90;;;;;;5056547;28;20503;-72
2022/02/24 11:22:05;;;;;;;27.30;6.60;;;6.90;99.90;;;;;;5056441;28;20029;-72
2022/02/24 11:24:30;;;;;;;39.97;8.32;;;7.00;99.90;;;;;;5056392;28;20036;-72
2022/02/24 11:27:17;;;;;;;27.80;6.45;;;7.10;99.90;;;;;;5038618;28;20029;-73
2022/02/24 11:29:53;;;;;;;30.63;7.53;;;7.20;99.90;;;;;;5056970;28;20102;-73
2022/02/24 11:32:23;;;;;;;20.23;6.25;;;7.20;99.90;;;;;;5056696;28;20069;-73
2022/02/24 11:34:58;;;;;;;26.90;6.57;;;7.30;99.90;;;;;;5056400;28;20061;-72
2022/02/24 11:37:28;;;;;;;29.50;6.38;;;7.20;99.90;;;;;;5056162;28;20017;-72
2022/02/24 11:40:14;;;;;;;26.08;5.80;;;7.30;99.90;;;;;;5056459;28;20024;-72
2022/02/24 11:42:42;;;;;;;26.88;6.93;;;7.30;99.90;;;;;;5056056;28;20060;-72
2022/02/24 11:45:25;;;;;;;23.90;6.57;;;7.30;99.90;;;;;;5056203;28;20032;-73
2022/02/24 11:47:57;;;;;;;29.15;7.47;;;7.40;99.90;;;;;;5056029;28;20051;-73
2022/02/24 11:50:35;;;;;;;32.05;6.55;;;7.40;99.90;;;;;;5055798;28;20131;-73
2022/02/24 11:53:01;;;;;;;24.83;7.05;;;7.50;99.90;;;;;;5055887;28;20481;-73
2022/02/24 11:55:56;;;;;;;26.27;6.78;;;7.50;99.90;;;;;;5055810;28;20025;-73
2022/02/24 11:58:56;;;;;;;23.35;7.07;;;7.60;99.90;;;;;;5056230;28;20070;-73
2022/02/24 12:01:37;;;;;;;22.10;6.90;;;7.60;99.90;;;;;;5055990;28;20013;-74
2022/02/24 12:04:22;;;;;;;34.45;6.00;;;7.70;99.90;;;;;;5055782;28;20423;-73
2022/02/24 12:06:57;;;;;;;38.35;8.07;;;7.90;99.90;;;;;;5055827;28;20092;-73
2022/02/24 12:09:32;;;;;;;30.15;5.95;;;7.90;99.90;;;;;;5055715;28;20035;-72
2022/02/24 12:12:08;;;;;;;17.58;5.80;;;7.90;99.90;;;;;;5055674;28;20021;-72
2022/02/24 12:14:33;;;;;;;26.30;6.25;;;8.00;99.90;;;;;;5055740;28;20025;-72
2022/02/24 12:17:05;;;;;;;24.33;6.35;;;8.00;99.90;;;;;;5055356;28;20104;-72
2022/02/24 12:19:55;;;;;;;32.58;6.82;;;8.00;99.90;;;;;;5055475;28;20035;-72
2022/02/24 12:22:22;;;;;;;22.13;6.57;;;8.00;99.90;;;;;;5043199;28;20468;-72
2022/02/24 12:24:52;;;;;;;29.15;6.80;;;8.00;99.90;;;;;;5055210;28;20083;-72
2022/02/24 12:27:42;;;;;;;30.23;6.97;;;8.00;99.90;;;;;;5037416;28;20033;-72
2022/02/24 12:30:10;;;;;;;23.65;5.78;;;8.00;99.90;;;;;;5055352;28;20389;-73
2022/02/24 12:32:44;;;;;;;23.35;5.93;;;8.10;99.90;;;;;;5055417;28;20021;-74
2022/02/24 12:35:12;;;;;;;26.20;6.13;;;8.00;99.90;;;;;;5055313;28;20018;-74
2022/02/24 12:37:40;;;;;;;28.80;5.60;;;8.00;99.90;;;;;;5055380;28;20556;-74
2022/02/24 12:40:07;;;;;;;28.98;5.63;;;8.00;99.90;;;;;;5055324;28;20040;-74
2022/02/24 12:42:33;;;;;;;28.50;5.80;;;8.00;99.90;;;;;;5055192;28;20485;-74
2022/02/24 12:44:59;;;;;;;23.85;4.97;;;8.00;99.90;;;;;;5037439;28;20078;-73
2022/02/24 12:47:26;;;;;;;26.80;6.03;;;8.00;99.90;;;;;;5055055;28;20024;-73
2022/02/24 12:49:54;;;;;;;16.30;4.38;;;8.00;99.90;;;;;;5055105;28;20503;-72